sensor_id;sensor_type;location;lat;lon;timestamp;temperature;humidity
24374;DHT22;12498;50.880;12.096;2022-09-03T00:00:07;14.30;33.50
24374;DHT22;12498;50.880;12.096;2022-09-03T00:03:28;14.40;33.00
24374;DHT22;12498;50.880;12.096;2022-09-03T00:08:16;14.30;34.60
24374;DHT22;12498;50.880;12.096;2022-09-03T00:15:59;14.20;38.70
24374;DHT22;12498;50.880;12.096;2022-09-03T00:18:31;14.20;39.00
24374;DHT22;12498;50.880;12.096;2022-09-03T00:21:09;14.20;46.40
24374;DHT22;12498;50.880;12.096;2022-09-03T00:23:39;14.10;40.90
24374;DHT22;12498;50.880;12.096;2022-09-03T00:29:01;14.10;42.80
24374;DHT22;12498;50.880;12.096;2022-09-03T00:31:34;14.10;49.10
24374;DHT22;12498;50.880;12.096;2022-09-03T00:34:30;14.00;47.50
24374;DHT22;12498;50.880;12.096;2022-09-03T00:36:55;13.90;52.00
24374;DHT22;12498;50.880;12.096;2022-09-03T00:39:23;13.90;53.80
24374;DHT22;12498;50.880;12.096;2022-09-03T00:47:11;13.80;63.10
24374;DHT22;12498;50.880;12.096;2022-09-03T00:52:30;13.70;66.40
24374;DHT22;12498;50.880;12.096;2022-09-03T01:00:21;13.50;72.40
24374;DHT22;12498;50.880;12.096;2022-09-03T01:03:07;13.50;80.40
24374;DHT22;12498;50.880;12.096;2022-09-03T01:11:21;13.40;80.60
24374;DHT22;12498;50.880;12.096;2022-09-03T01:14:10;13.30;84.30
24374;DHT22;12498;50.880;12.096;2022-09-03T01:16:59;13.30;87.50
24374;DHT22;12498;50.880;12.096;2022-09-03T01:42:28;13.10;94.10
24374;DHT22;12498;50.880;12.096;2022-09-03T01:51:07;13.00;93.90
24374;DHT22;12498;50.880;12.096;2022-09-03T01:59:30;12.90;97.30
24374;DHT22;12498;50.880;12.096;2022-09-03T02:02:16;12.90;97.40
24374;DHT22;12498;50.880;12.096;2022-09-03T02:05:06;12.90;98.60
24374;DHT22;12498;50.880;12.096;2022-09-03T02:07:35;12.90;98.60
24374;DHT22;12498;50.880;12.096;2022-09-03T02:10:05;12.90;97.20
24374;DHT22;12498;50.880;12.096;2022-09-03T02:12:33;12.80;98.00
24374;DHT22;12498;50.880;12.096;2022-09-03T02:15:05;12.90;98.30
24374;DHT22;12498;50.880;12.096;2022-09-03T02:17:32;12.80;99.20
24374;DHT22;12498;50.880;12.096;2022-09-03T02:20:04;12.80;99.90
24374;DHT22;12498;50.880;12.096;2022-09-03T02:22:31;12.80;99.40
24374;DHT22;12498;50.880;12.096;2022-09-03T02:24:58;12.80;99.80
24374;DHT22;12498;50.880;12.096;2022-09-03T02:27:24;12.80;99.80
24374;DHT22;12498;50.880;12.096;2022-09-03T02:29:49;12.80;99.00
24374;DHT22;12498;50.880;12.096;2022-09-03T02:32:15;12.80;99.90
24374;DHT22;12498;50.880;12.096;2022-09-03T02:34:41;12.80;99.90
24374;DHT22;12498;50.880;12.096;2022-09-03T02:37:13;12.80;99.80
24374;DHT22;12498;50.880;12.096;2022-09-03T02:39:39;12.80;99.90
24374;DHT22;12498;50.880;12.096;2022-09-03T02:42:05;12.80;99.90
24374;DHT22;12498;50.880;12.096;2022-09-03T02:44:34;12.80;99.90
24374;DHT22;12498;50.880;12.096;2022-09-03T02:47:03;12.80;99.50
24374;DHT22;12498;50.880;12.096;2022-09-03T02:49:30;12.80;99.50
24374;DHT22;12498;50.880;12.096;2022-09-03T02:52:01;12.80;99.10
24374;DHT22;12498;50.880;12.096;2022-09-03T02:54:30;12.70;99.90
24374;DHT22;12498;50.880;12.096;2022-09-03T02:56:58;12.80;99.90
24374;DHT22;12498;50.880;12.096;2022-09-03T02:59:24;12.80;99.90
24374;DHT22;12498;50.880;12.096;2022-09-03T03:01:53;12.90;99.90
24374;DHT22;12498;50.880;12.096;2022-09-03T03:04:19;12.80;99.90
24374;DHT22;12498;50.880;12.096;2022-09-03T03:06:45;12.80;99.90
24374;DHT22;12498;50.880;12.096;2022-09-03T03:09:10;12.70;99.90
24374;DHT22;12498;50.880;12.096;2022-09-03T03:11:36;12.70;99.90
24374;DHT22;12498;50.880;12.096;2022-09-03T03:14:02;12.70;99.90
24374;DHT22;12498;50.880;12.096;2022-09-03T03:16:28;12.70;99.90
24374;DHT22;12498;50.880;12.096;2022-09-03T03:18:55;12.60;99.90
24374;DHT22;12498;50.880;12.096;2022-09-03T03:21:21;12.60;99.90
24374;DHT22;12498;50.880;12.096;2022-09-03T03:23:47;12.60;99.90
24374;DHT22;12498;50.880;12.096;2022-09-03T03:26:15;12.60;99.90
24374;DHT22;12498;50.880;12.096;2022-09-03T03:28:45;12.40;99.90
24374;DHT22;12498;50.880;12.096;2022-09-03T03:31:20;12.40;99.90
24374;DHT22;12498;50.880;12.096;2022-09-03T03:33:56;12.40;99.90
24374;DHT22;12498;50.880;12.096;2022-09-03T03:36:24;12.30;99.90
24374;DHT22;12498;50.880;12.096;2022-09-03T03:38:53;12.30;99.90
24374;DHT22;12498;50.880;12.096;2022-09-03T03:41:27;12.30;99.90
24374;DHT22;12498;50.880;12.096;2022-09-03T03:43:57;12.20;99.90
24374;DHT22;12498;50.880;12.096;2022-09-03T03:46:24;12.20;99.90
24374;DHT22;12498;50.880;12.096;2022-09-03T03:48:53;12.20;99.90
24374;DHT22;12498;50.880;12.096;2022-09-03T03:51:18;12.10;99.90
24374;DHT22;12498;50.880;12.096;2022-09-03T03:53:45;12.10;99.90
24374;DHT22;12498;50.880;12.096;2022-09-03T03:56:13;12.10;99.90
24374;DHT22;12498;50.880;12.096;2022-09-03T03:58:39;12.00;99.90
24374;DHT22;12498;50.880;12.096;2022-09-03T04:01:14;12.00;99.90
24374;DHT22;12498;50.880;12.096;2022-09-03T04:03:41;11.90;99.90
24374;DHT22;12498;50.880;12.096;2022-09-03T04:06:08;11.80;99.90
24374;DHT22;12498;50.880;12.096;2022-09-03T04:08:35;11.80;99.90
24374;DHT22;12498;50.880;12.096;2022-09-03T04:11:03;11.70;99.90
24374;DHT22;12498;50.880;12.096;2022-09-03T04:13:33;11.70;99.90
24374;DHT22;12498;50.880;12.096;2022-09-03T04:16:03;11.70;99.90
24374;DHT22;12498;50.880;12.096;2022-09-03T04:18:30;11.70;99.90
24374;DHT22;12498;50.880;12.096;2022-09-03T04:21:01;11.60;99.90
24374;DHT22;12498;50.880;12.096;2022-09-03T04:23:29;11.60;99.90
24374;DHT22;12498;50.880;12.096;2022-09-03T04:25:55;11.60;99.90
24374;DHT22;12498;50.880;12.096;2022-09-03T04:28:20;11.60;99.90
24374;DHT22;12498;50.880;12.096;2022-09-03T04:30:46;11.50;99.90
24374;DHT22;12498;50.880;12.096;2022-09-03T04:33:12;11.40;99.90
24374;DHT22;12498;50.880;12.096;2022-09-03T04:35:38;11.40;99.90
24374;DHT22;12498;50.880;12.096;2022-09-03T04:38:05;11.40;99.90
24374;DHT22;12498;50.880;12.096;2022-09-03T04:40:31;11.40;99.90
24374;DHT22;12498;50.880;12.096;2022-09-03T04:42:58;11.40;99.90
24374;DHT22;12498;50.880;12.096;2022-09-03T04:45:24;11.40;99.90
24374;DHT22;12498;50.880;12.096;2022-09-03T04:48:16;11.40;99.90
24374;DHT22;12498;50.880;12.096;2022-09-03T04:50:42;11.30;99.90
24374;DHT22;12498;50.880;12.096;2022-09-03T04:53:07;11.30;99.90
24374;DHT22;12498;50.880;12.096;2022-09-03T04:55:34;11.30;99.90
24374;DHT22;12498;50.880;12.096;2022-09-03T04:58:00;11.30;99.90
24374;DHT22;12498;50.880;12.096;2022-09-03T05:00:26;11.70;99.90
24374;DHT22;12498;50.880;12.096;2022-09-03T05:02:52;12.00;99.90
24374;DHT22;12498;50.880;12.096;2022-09-03T05:05:17;12.30;99.90
24374;DHT22;12498;50.880;12.096;2022-09-03T05:07:43;12.50;99.90
24374;DHT22;12498;50.880;12.096;2022-09-03T05:10:10;12.70;99.90
24374;DHT22;12498;50.880;12.096;2022-09-03T05:12:46;12.90;99.90
24374;DHT22;12498;50.880;12.096;2022-09-03T05:15:14;12.90;99.90
24374;DHT22;12498;50.880;12.096;2022-09-03T05:17:40;13.00;99.90
24374;DHT22;12498;50.880;12.096;2022-09-03T05:20:06;13.30;99.90
24374;DHT22;12498;50.880;12.096;2022-09-03T05:22:33;13.50;99.90
24374;DHT22;12498;50.880;12.096;2022-09-03T05:24:59;13.60;99.90
24374;DHT22;12498;50.880;12.096;2022-09-03T05:27:25;13.50;99.90
24374;DHT22;12498;50.880;12.096;2022-09-03T05:29:50;13.60;99.90
24374;DHT22;12498;50.880;12.096;2022-09-03T05:32:16;13.70;99.90
24374;DHT22;12498;50.880;12.096;2022-09-03T05:34:45;13.80;99.90
24374;DHT22;12498;50.880;12.096;2022-09-03T05:37:10;13.80;99.90
24374;DHT22;12498;50.880;12.096;2022-09-03T05:39:37;13.80;99.90
24374;DHT22;12498;50.880;12.096;2022-09-03T05:42:02;13.70;99.90
24374;DHT22;12498;50.880;12.096;2022-09-03T05:44:28;13.70;99.90
24374;DHT22;12498;50.880;12.096;2022-09-03T05:46:54;13.60;99.90
24374;DHT22;12498;50.880;12.096;2022-09-03T05:49:20;13.60;99.90
24374;DHT22;12498;50.880;12.096;2022-09-03T05:51:45;13.80;99.90
24374;DHT22;12498;50.880;12.096;2022-09-03T05:54:11;13.80;99.90
24374;DHT22;12498;50.880;12.096;2022-09-03T05:56:37;13.60;99.90
24374;DHT22;12498;50.880;12.096;2022-09-03T05:59:08;13.70;99.90
24374;DHT22;12498;50.880;12.096;2022-09-03T06:01:36;13.70;99.90
24374;DHT22;12498;50.880;12.096;2022-09-03T06:04:07;13.80;99.90
24374;DHT22;12498;50.880;12.096;2022-09-03T06:06:35;13.60;99.90
24374;DHT22;12498;50.880;12.096;2022-09-03T06:09:06;13.70;99.90
24374;DHT22;12498;50.880;12.096;2022-09-03T06:11:34;13.80;99.90
24374;DHT22;12498;50.880;12.096;2022-09-03T06:14:02;13.80;99.90
24374;DHT22;12498;50.880;12.096;2022-09-03T06:16:31;13.60;99.90
24374;DHT22;12498;50.880;12.096;2022-09-03T06:18:57;13.30;99.90
24374;DHT22;12498;50.880;12.096;2022-09-03T06:21:23;13.20;99.90
24374;DHT22;12498;50.880;12.096;2022-09-03T06:23:50;13.00;99.90
24374;DHT22;12498;50.880;12.096;2022-09-03T06:26:16;12.90;99.90
24374;DHT22;12498;50.880;12.096;2022-09-03T06:28:43;12.80;99.90
24374;DHT22;12498;50.880;12.096;2022-09-03T06:31:11;12.80;99.90
24374;DHT22;12498;50.880;12.096;2022-09-03T06:33:38;12.70;99.90
24374;DHT22;12498;50.880;12.096;2022-09-03T06:36:06;12.70;99.90
24374;DHT22;12498;50.880;12.096;2022-09-03T06:38:33;12.70;99.90
24374;DHT22;12498;50.880;12.096;2022-09-03T06:41:01;12.70;99.90
24374;DHT22;12498;50.880;12.096;2022-09-03T06:43:33;12.70;99.90
24374;DHT22;12498;50.880;12.096;2022-09-03T06:46:04;12.70;99.90
24374;DHT22;12498;50.880;12.096;2022-09-03T06:48:31;12.70;99.90
24374;DHT22;12498;50.880;12.096;2022-09-03T06:51:00;12.70;99.90
24374;DHT22;12498;50.880;12.096;2022-09-03T06:53:30;12.80;99.90
24374;DHT22;12498;50.880;12.096;2022-09-03T06:55:58;12.80;99.90
24374;DHT22;12498;50.880;12.096;2022-09-03T06:58:31;12.90;99.90
24374;DHT22;12498;50.880;12.096;2022-09-03T07:01:12;13.00;99.90
24374;DHT22;12498;50.880;12.096;2022-09-03T07:03:39;13.00;99.90
24374;DHT22;12498;50.880;12.096;2022-09-03T07:08:33;13.10;99.90
24374;DHT22;12498;50.880;12.096;2022-09-03T07:10:59;13.10;99.90
24374;DHT22;12498;50.880;12.096;2022-09-03T07:13:27;13.20;99.90
24374;DHT22;12498;50.880;12.096;2022-09-03T07:16:05;13.30;99.90
24374;DHT22;12498;50.880;12.096;2022-09-03T07:18:31;13.30;99.50
24374;DHT22;12498;50.880;12.096;2022-09-03T07:21:01;13.40;98.60
24374;DHT22;12498;50.880;12.096;2022-09-03T07:23:28;13.50;98.30
24374;DHT22;12498;50.880;12.096;2022-09-03T07:25:59;13.60;97.60
24374;DHT22;12498;50.880;12.096;2022-09-03T07:28:27;13.70;96.00
24374;DHT22;12498;50.880;12.096;2022-09-03T07:30:54;13.80;95.90
24374;DHT22;12498;50.880;12.096;2022-09-03T07:33:20;13.80;95.70
24374;DHT22;12498;50.880;12.096;2022-09-03T07:35:46;13.90;94.30
24374;DHT22;12498;50.880;12.096;2022-09-03T07:38:17;14.00;94.50
24374;DHT22;12498;50.880;12.096;2022-09-03T07:40:44;14.10;94.50
24374;DHT22;12498;50.880;12.096;2022-09-03T07:43:11;14.20;92.80
24374;DHT22;12498;50.880;12.096;2022-09-03T07:45:37;14.20;92.60
24374;DHT22;12498;50.880;12.096;2022-09-03T07:48:03;14.40;91.50
24374;DHT22;12498;50.880;12.096;2022-09-03T07:50:29;14.50;90.90
24374;DHT22;12498;50.880;12.096;2022-09-03T07:52:58;14.60;90.10
24374;DHT22;12498;50.880;12.096;2022-09-03T07:55:24;14.70;86.60
24374;DHT22;12498;50.880;12.096;2022-09-03T07:57:55;14.90;84.50
24374;DHT22;12498;50.880;12.096;2022-09-03T08:00:21;15.00;83.90
24374;DHT22;12498;50.880;12.096;2022-09-03T08:02:46;15.10;82.30
24374;DHT22;12498;50.880;12.096;2022-09-03T08:05:12;15.20;78.50
24374;DHT22;12498;50.880;12.096;2022-09-03T08:07:38;15.40;81.30
24374;DHT22;12498;50.880;12.096;2022-09-03T08:10:04;15.50;84.90
24374;DHT22;12498;50.880;12.096;2022-09-03T08:12:30;15.60;90.60
24374;DHT22;12498;50.880;12.096;2022-09-03T08:14:57;15.80;98.90
24374;DHT22;12498;50.880;12.096;2022-09-03T08:17:23;15.90;99.90
24374;DHT22;12498;50.880;12.096;2022-09-03T08:19:48;16.00;99.90
24374;DHT22;12498;50.880;12.096;2022-09-03T08:22:14;16.10;99.90
24374;DHT22;12498;50.880;12.096;2022-09-03T08:24:40;16.20;99.90
24374;DHT22;12498;50.880;12.096;2022-09-03T08:27:07;16.30;99.90
24374;DHT22;12498;50.880;12.096;2022-09-03T08:29:33;16.50;99.90
24374;DHT22;12498;50.880;12.096;2022-09-03T08:31:58;16.60;99.90
24374;DHT22;12498;50.880;12.096;2022-09-03T08:34:24;16.70;99.90
24374;DHT22;12498;50.880;12.096;2022-09-03T08:36:49;16.80;99.90
24374;DHT22;12498;50.880;12.096;2022-09-03T08:39:17;16.90;99.90
24374;DHT22;12498;50.880;12.096;2022-09-03T08:44:28;17.10;99.90
24374;DHT22;12498;50.880;12.096;2022-09-03T08:52:46;17.40;99.90
24374;DHT22;12498;50.880;12.096;2022-09-03T08:57:48;17.60;99.90
24374;DHT22;12498;50.880;12.096;2022-09-03T09:00:14;17.70;99.90
24374;DHT22;12498;50.880;12.096;2022-09-03T09:03:18;17.80;99.90
24374;DHT22;12498;50.880;12.096;2022-09-03T09:05:57;17.90;99.90
24374;DHT22;12498;50.880;12.096;2022-09-03T09:09:34;18.00;99.90
24374;DHT22;12498;50.880;12.096;2022-09-03T09:11:57;18.10;99.90
24374;DHT22;12498;50.880;12.096;2022-09-03T09:20:14;18.30;99.90
24374;DHT22;12498;50.880;12.096;2022-09-03T09:23:19;18.40;99.90
24374;DHT22;12498;50.880;12.096;2022-09-03T09:25:49;18.50;99.90
24374;DHT22;12498;50.880;12.096;2022-09-03T09:28:21;18.60;99.90
24374;DHT22;12498;50.880;12.096;2022-09-03T09:30:48;18.70;99.90
24374;DHT22;12498;50.880;12.096;2022-09-03T09:33:15;18.90;99.90
24374;DHT22;12498;50.880;12.096;2022-09-03T09:35:42;18.90;99.90
24374;DHT22;12498;50.880;12.096;2022-09-03T09:38:09;19.10;99.90
24374;DHT22;12498;50.880;12.096;2022-09-03T09:40:43;19.20;99.90
24374;DHT22;12498;50.880;12.096;2022-09-03T09:43:19;19.30;99.90
24374;DHT22;12498;50.880;12.096;2022-09-03T09:45:49;19.40;99.90
24374;DHT22;12498;50.880;12.096;2022-09-03T09:51:03;19.50;99.70
24374;DHT22;12498;50.880;12.096;2022-09-03T09:53:29;19.60;99.30
24374;DHT22;12498;50.880;12.096;2022-09-03T09:55:56;19.70;98.10
24374;DHT22;12498;50.880;12.096;2022-09-03T09:58:26;19.80;97.00
24374;DHT22;12498;50.880;12.096;2022-09-03T10:01:04;20.00;96.70
24374;DHT22;12498;50.880;12.096;2022-09-03T10:03:50;20.20;96.60
24374;DHT22;12498;50.880;12.096;2022-09-03T10:06:25;20.70;96.50
24374;DHT22;12498;50.880;12.096;2022-09-03T10:09:11;21.30;96.90
24374;DHT22;12498;50.880;12.096;2022-09-03T10:11:41;22.20;95.40
24374;DHT22;12498;50.880;12.096;2022-09-03T10:14:27;23.40;91.90
24374;DHT22;12498;50.880;12.096;2022-09-03T10:17:04;24.90;87.60
24374;DHT22;12498;50.880;12.096;2022-09-03T10:19:45;26.10;79.80
24374;DHT22;12498;50.880;12.096;2022-09-03T10:22:39;26.90;72.00
24374;DHT22;12498;50.880;12.096;2022-09-03T10:25:14;27.60;63.30
24374;DHT22;12498;50.880;12.096;2022-09-03T10:27:41;28.50;56.80
24374;DHT22;12498;50.880;12.096;2022-09-03T10:30:09;29.20;53.60
24374;DHT22;12498;50.880;12.096;2022-09-03T10:32:38;29.60;51.30
24374;DHT22;12498;50.880;12.096;2022-09-03T10:35:20;30.20;50.30
24374;DHT22;12498;50.880;12.096;2022-09-03T10:46:06;33.90;37.50
24374;DHT22;12498;50.880;12.096;2022-09-03T10:51:18;35.40;35.10
24374;DHT22;12498;50.880;12.096;2022-09-03T11:06:50;37.80;29.10
24374;DHT22;12498;50.880;12.096;2022-09-03T11:09:21;38.30;28.80
24374;DHT22;12498;50.880;12.096;2022-09-03T11:11:59;39.30;28.60
24374;DHT22;12498;50.880;12.096;2022-09-03T11:14:43;38.50;27.30
24374;DHT22;12498;50.880;12.096;2022-09-03T11:17:18;38.60;27.80
24374;DHT22;12498;50.880;12.096;2022-09-03T11:22:46;39.30;27.60
24374;DHT22;12498;50.880;12.096;2022-09-03T11:25:14;39.60;27.10
24374;DHT22;12498;50.880;12.096;2022-09-03T11:33:04;37.30;27.90
24374;DHT22;12498;50.880;12.096;2022-09-03T11:40:35;39.20;26.40
24374;DHT22;12498;50.880;12.096;2022-09-03T11:43:28;39.20;26.40
24374;DHT22;12498;50.880;12.096;2022-09-03T11:48:48;39.40;26.30
24374;DHT22;12498;50.880;12.096;2022-09-03T11:53:54;40.10;25.70
24374;DHT22;12498;50.880;12.096;2022-09-03T11:56:20;39.90;25.20
24374;DHT22;12498;50.880;12.096;2022-09-03T11:58:46;39.70;25.10
24374;DHT22;12498;50.880;12.096;2022-09-03T12:01:14;39.70;25.10
24374;DHT22;12498;50.880;12.096;2022-09-03T12:03:57;39.10;25.40
24374;DHT22;12498;50.880;12.096;2022-09-03T12:12:39;39.10;25.50
24374;DHT22;12498;50.880;12.096;2022-09-03T12:18:32;39.70;25.60
24374;DHT22;12498;50.880;12.096;2022-09-03T12:21:11;39.50;25.30
24374;DHT22;12498;50.880;12.096;2022-09-03T12:26:12;37.50;25.80
24374;DHT22;12498;50.880;12.096;2022-09-03T12:28:40;37.80;26.30
24374;DHT22;12498;50.880;12.096;2022-09-03T12:31:15;38.00;26.10
24374;DHT22;12498;50.880;12.096;2022-09-03T12:33:53;38.70;26.00
24374;DHT22;12498;50.880;12.096;2022-09-03T12:36:21;38.40;26.00
24374;DHT22;12498;50.880;12.096;2022-09-03T12:38:47;37.80;25.70
24374;DHT22;12498;50.880;12.096;2022-09-03T12:41:29;37.90;25.80
24374;DHT22;12498;50.880;12.096;2022-09-03T12:43:58;38.90;25.70
24374;DHT22;12498;50.880;12.096;2022-09-03T12:46:26;38.60;25.50
24374;DHT22;12498;50.880;12.096;2022-09-03T12:49:05;39.30;25.50
24374;DHT22;12498;50.880;12.096;2022-09-03T12:51:40;38.50;26.00
24374;DHT22;12498;50.880;12.096;2022-09-03T12:54:09;37.60;26.70
24374;DHT22;12498;50.880;12.096;2022-09-03T12:56:43;37.30;26.60
24374;DHT22;12498;50.880;12.096;2022-09-03T12:59:14;37.90;26.80
24374;DHT22;12498;50.880;12.096;2022-09-03T13:01:54;38.10;26.00
24374;DHT22;12498;50.880;12.096;2022-09-03T13:04:28;38.60;26.10
24374;DHT22;12498;50.880;12.096;2022-09-03T13:07:18;38.50;26.10
24374;DHT22;12498;50.880;12.096;2022-09-03T13:09:46;38.50;25.90
24374;DHT22;12498;50.880;12.096;2022-09-03T13:12:31;37.50;26.20
24374;DHT22;12498;50.880;12.096;2022-09-03T13:15:05;37.70;26.40
24374;DHT22;12498;50.880;12.096;2022-09-03T13:25:56;38.20;26.20
24374;DHT22;12498;50.880;12.096;2022-09-03T13:28:51;38.80;25.50
24374;DHT22;12498;50.880;12.096;2022-09-03T13:37:30;38.20;26.20
24374;DHT22;12498;50.880;12.096;2022-09-03T13:45:50;35.80;27.80
24374;DHT22;12498;50.880;12.096;2022-09-03T13:48:27;33.60;29.50
24374;DHT22;12498;50.880;12.096;2022-09-03T13:51:24;32.70;30.60
24374;DHT22;12498;50.880;12.096;2022-09-03T13:54:06;31.40;31.60
24374;DHT22;12498;50.880;12.096;2022-09-03T13:57:03;30.90;32.50
24374;DHT22;12498;50.880;12.096;2022-09-03T13:59:52;31.10;31.80
24374;DHT22;12498;50.880;12.096;2022-09-03T14:02:32;30.40;32.90
24374;DHT22;12498;50.880;12.096;2022-09-03T14:12:43;28.40;36.60
24374;DHT22;12498;50.880;12.096;2022-09-03T14:15:21;28.10;36.70
24374;DHT22;12498;50.880;12.096;2022-09-03T14:18:22;27.80;37.10
24374;DHT22;12498;50.880;12.096;2022-09-03T14:21:08;27.70;37.30
24374;DHT22;12498;50.880;12.096;2022-09-03T14:24:06;27.50;37.50
24374;DHT22;12498;50.880;12.096;2022-09-03T14:26:36;27.20;37.50
24374;DHT22;12498;50.880;12.096;2022-09-03T14:32:10;27.50;38.70
24374;DHT22;12498;50.880;12.096;2022-09-03T14:50:57;28.80;37.40
24374;DHT22;12498;50.880;12.096;2022-09-03T14:59:04;28.10;38.70
24374;DHT22;12498;50.880;12.096;2022-09-03T15:01:35;27.80;39.20
24374;DHT22;12498;50.880;12.096;2022-09-03T15:07:07;27.20;40.20
24374;DHT22;12498;50.880;12.096;2022-09-03T15:09:53;26.70;40.70
24374;DHT22;12498;50.880;12.096;2022-09-03T15:12:40;26.20;41.20
24374;DHT22;12498;50.880;12.096;2022-09-03T15:18:22;25.80;41.90
24374;DHT22;12498;50.880;12.096;2022-09-03T15:21:00;25.80;42.20
24374;DHT22;12498;50.880;12.096;2022-09-03T15:26:46;25.30;42.60
24374;DHT22;12498;50.880;12.096;2022-09-03T15:34:58;25.20;44.10
24374;DHT22;12498;50.880;12.096;2022-09-03T15:37:41;25.10;44.00
24374;DHT22;12498;50.880;12.096;2022-09-03T15:42:57;24.60;45.10
24374;DHT22;12498;50.880;12.096;2022-09-03T15:45:32;24.40;44.90
24374;DHT22;12498;50.880;12.096;2022-09-03T15:48:16;24.10;45.60
24374;DHT22;12498;50.880;12.096;2022-09-03T15:51:41;23.90;46.20
24374;DHT22;12498;50.880;12.096;2022-09-03T15:53:59;23.80;46.50
24374;DHT22;12498;50.880;12.096;2022-09-03T15:56:35;23.80;47.30
24374;DHT22;12498;50.880;12.096;2022-09-03T16:01:44;23.40;48.00
24374;DHT22;12498;50.880;12.096;2022-09-03T16:07:25;23.20;48.50
24374;DHT22;12498;50.880;12.096;2022-09-03T16:12:50;22.80;49.50
24374;DHT22;12498;50.880;12.096;2022-09-03T16:26:17;22.40;52.00
24374;DHT22;12498;50.880;12.096;2022-09-03T16:28:50;22.30;51.90
24374;DHT22;12498;50.880;12.096;2022-09-03T16:45:19;21.90;53.80
24374;DHT22;12498;50.880;12.096;2022-09-03T16:56:54;21.60;55.00
24374;DHT22;12498;50.880;12.096;2022-09-03T16:59:49;21.60;55.60
24374;DHT22;12498;50.880;12.096;2022-09-03T17:05:07;21.60;55.60
24374;DHT22;12498;50.880;12.096;2022-09-03T17:26:51;21.20;58.20
24374;DHT22;12498;50.880;12.096;2022-09-03T17:34:50;20.90;57.70
24374;DHT22;12498;50.880;12.096;2022-09-03T17:40:26;20.90;30.90
24374;DHT22;12498;50.880;12.096;2022-09-03T17:51:08;20.80;31.10
24374;DHT22;12498;50.880;12.096;2022-09-03T17:53:49;20.80;30.00
24374;DHT22;12498;50.880;12.096;2022-09-03T17:56:34;20.70;31.00
24374;DHT22;12498;50.880;12.096;2022-09-03T17:59:31;20.70;31.60
24374;DHT22;12498;50.880;12.096;2022-09-03T18:12:58;20.50;35.40
24374;DHT22;12498;50.880;12.096;2022-09-03T18:15:48;20.40;33.80
24374;DHT22;12498;50.880;12.096;2022-09-03T18:18:27;20.50;34.50
24374;DHT22;12498;50.880;12.096;2022-09-03T18:20:59;20.40;34.70
24374;DHT22;12498;50.880;12.096;2022-09-03T18:23:56;20.40;35.90
24374;DHT22;12498;50.880;12.096;2022-09-03T18:27:08;20.40;34.70
24374;DHT22;12498;50.880;12.096;2022-09-03T18:32:42;20.30;34.30
24374;DHT22;12498;50.880;12.096;2022-09-03T18:35:29;20.30;35.20
24374;DHT22;12498;50.880;12.096;2022-09-03T18:38:13;20.30;35.50
24374;DHT22;12498;50.880;12.096;2022-09-03T18:47:44;20.20;38.50
24374;DHT22;12498;50.880;12.096;2022-09-03T18:50:44;20.10;38.60
24374;DHT22;12498;50.880;12.096;2022-09-03T18:56:49;20.10;39.40
24374;DHT22;12498;50.880;12.096;2022-09-03T18:59:49;20.10;40.00
24374;DHT22;12498;50.880;12.096;2022-09-03T19:05:52;20.00;41.00
24374;DHT22;12498;50.880;12.096;2022-09-03T19:09:50;20.00;41.40
24374;DHT22;12498;50.880;12.096;2022-09-03T19:12:29;20.00;40.60
24374;DHT22;12498;50.880;12.096;2022-09-03T19:15:28;20.00;40.60
24374;DHT22;12498;50.880;12.096;2022-09-03T19:24:11;19.90;43.00
24374;DHT22;12498;50.880;12.096;2022-09-03T19:27:08;19.90;43.90
24374;DHT22;12498;50.880;12.096;2022-09-03T19:30:08;19.90;44.10
24374;DHT22;12498;50.880;12.096;2022-09-03T19:42:18;19.60;18.00
24374;DHT22;12498;50.880;12.096;2022-09-03T19:51:15;19.50;45.90
24374;DHT22;12498;50.880;12.096;2022-09-03T19:54:03;19.40;41.40
24374;DHT22;12498;50.880;12.096;2022-09-03T19:56:50;19.40;54.90
24374;DHT22;12498;50.880;12.096;2022-09-03T19:59:39;19.40;46.30
24374;DHT22;12498;50.880;12.096;2022-09-03T20:02:24;19.30;50.70
24374;DHT22;12498;50.880;12.096;2022-09-03T20:05:18;19.20;52.20
24374;DHT22;12498;50.880;12.096;2022-09-03T20:08:03;19.20;50.60
24374;DHT22;12498;50.880;12.096;2022-09-03T20:10:50;19.20;52.50
24374;DHT22;12498;50.880;12.096;2022-09-03T20:13:18;19.20;49.00
24374;DHT22;12498;50.880;12.096;2022-09-03T20:16:23;19.10;49.90
24374;DHT22;12498;50.880;12.096;2022-09-03T20:21:49;19.00;59.20
24374;DHT22;12498;50.880;12.096;2022-09-03T20:33:17;18.90;52.00
24374;DHT22;12498;50.880;12.096;2022-09-03T20:49:22;18.90;46.60
24374;DHT22;12498;50.880;12.096;2022-09-03T20:52:03;18.80;44.10
24374;DHT22;12498;50.880;12.096;2022-09-03T20:54:40;18.80;41.60
24374;DHT22;12498;50.880;12.096;2022-09-03T20:57:27;18.80;37.00
24374;DHT22;12498;50.880;12.096;2022-09-03T21:05:31;18.70;37.90
24374;DHT22;12498;50.880;12.096;2022-09-03T21:11:00;18.70;44.00
24374;DHT22;12498;50.880;12.096;2022-09-03T21:22:07;18.60;47.70
24374;DHT22;12498;50.880;12.096;2022-09-03T21:24:46;18.60;44.60
24374;DHT22;12498;50.880;12.096;2022-09-03T21:27:16;18.60;49.90
24374;DHT22;12498;50.880;12.096;2022-09-03T21:30:06;18.60;49.10
24374;DHT22;12498;50.880;12.096;2022-09-03T21:32:33;18.60;50.40
24374;DHT22;12498;50.880;12.096;2022-09-03T21:35:15;18.50;51.80
24374;DHT22;12498;50.880;12.096;2022-09-03T21:40:28;18.50;41.90
24374;DHT22;12498;50.880;12.096;2022-09-03T21:43:18;18.50;42.30
24374;DHT22;12498;50.880;12.096;2022-09-03T21:45:58;18.50;43.10
24374;DHT22;12498;50.880;12.096;2022-09-03T21:48:37;18.50;42.00
24374;DHT22;12498;50.880;12.096;2022-09-03T21:51:09;18.50;44.80
24374;DHT22;12498;50.880;12.096;2022-09-03T21:59:19;18.40;47.30
24374;DHT22;12498;50.880;12.096;2022-09-03T22:02:04;18.50;45.60
24374;DHT22;12498;50.880;12.096;2022-09-03T22:04:31;18.40;46.10
24374;DHT22;12498;50.880;12.096;2022-09-03T22:12:38;18.40;44.20
24374;DHT22;12498;50.880;12.096;2022-09-03T22:15:08;18.40;43.60
24374;DHT22;12498;50.880;12.096;2022-09-03T22:17:44;18.40;40.00
24374;DHT22;12498;50.880;12.096;2022-09-03T22:20:13;18.40;41.10
24374;DHT22;12498;50.880;12.096;2022-09-03T22:25:22;18.40;45.60
24374;DHT22;12498;50.880;12.096;2022-09-03T22:30:36;18.30;49.50
24374;DHT22;12498;50.880;12.096;2022-09-03T22:33:23;18.20;48.20
24374;DHT22;12498;50.880;12.096;2022-09-03T22:36:12;18.20;48.10
24374;DHT22;12498;50.880;12.096;2022-09-03T22:47:40;18.20;49.80